Time;durP1;ratioP1;P1;durP2;ratioP2;P2;SDS_P1;SDS_P2;PMS_P1;PMS_P2;Temp;Humidity;BMP_temperature;BMP_pressure;BME280_temperature;BME280_humidity;BME280_pressure;Samples;Min_cycle;Max_cycle;Signal;HPM_P1;HPM_P2
2021/05/31 00:00:44;;;;;;;9.60;6.78;;;;;;;13.97;100.00;96832.44;4945667;28;20035;-64
2021/05/31 00:03:10;;;;;;;7.57;6.03;;;;;;;13.92;100.00;96827.25;4945893;28;20042;-62
2021/05/31 00:05:35;;;;;;;8.60;6.22;;;;;;;13.97;100.00;96829.66;4955572;28;20042;-65
2021/05/31 00:08:01;;;;;;;7.57;5.85;;;;;;;13.89;100.00;96822.50;4965170;28;20651;-62
2021/05/31 00:10:27;;;;;;;6.13;5.53;;;;;;;13.54;100.00;96793.44;4964963;28;20092;-64
2021/05/31 00:12:53;;;;;;;6.53;5.93;;;;;;;13.76;100.00;96830.44;4965180;28;20023;-62
2021/05/31 00:15:19;;;;;;;6.95;6.25;;;;;;;13.82;100.00;96830.81;4948482;28;20533;-62
2021/05/31 00:17:44;;;;;;;6.35;5.63;;;;;;;13.73;100.00;96813.72;4965048;28;20093;-63
2021/05/31 00:20:11;;;;;;;6.78;5.88;;;;;;;13.90;100.00;96836.00;4964896;28;20521;-62
2021/05/31 00:22:37;;;;;;;6.15;5.55;;;;;;;13.94;100.00;96836.78;4965233;28;20090;-62
2021/05/31 00:25:05;;;;;;;6.78;6.07;;;;;;;13.98;100.00;96828.44;4963540;28;20531;-61
2021/05/31 00:27:30;;;;;;;6.65;5.57;;;;;;;13.90;100.00;96835.19;4964593;28;20038;-62
2021/05/31 00:29:55;;;;;;;7.60;5.47;;;;;;;13.35;100.00;96771.53;4965295;28;20042;-62
2021/05/31 00:32:21;;;;;;;7.18;6.43;;;;;;;13.50;100.00;96787.06;4964651;28;20042;-63
2021/05/31 00:34:47;;;;;;;7.72;5.75;;;;;;;13.48;100.00;96769.94;4965106;28;20043;-61
2021/05/31 00:37:14;;;;;;;6.55;5.78;;;;;;;13.39;100.00;96761.19;4962988;28;20035;-64
2021/05/31 00:39:39;;;;;;;6.22;5.63;;;;;;;13.49;100.00;96770.75;4964263;28;20138;-64
2021/05/31 00:42:05;;;;;;;9.43;5.32;;;;;;;13.19;100.00;96707.13;4963468;28;20034;-61
2021/05/31 00:44:30;;;;;;;5.72;5.22;;;;;;;13.86;100.00;96806.56;4965254;28;20038;-63
2021/05/31 00:46:56;;;;;;;6.43;5.57;;;;;;;13.79;100.00;96798.22;4963410;28;20039;-61
2021/05/31 00:49:25;;;;;;;6.10;4.40;;;;;;;13.04;100.00;96699.94;4963541;28;20117;-61
2021/05/31 00:51:51;;;;;;;5.22;4.72;;;;;;;13.62;100.00;96802.59;4964549;28;20126;-61
2021/05/31 00:54:19;;;;;;;4.65;4.22;;;;;;;11.32;100.00;96415.38;4963490;28;20043;-61
2021/05/31 00:56:45;;;;;;;7.28;4.88;;;;;;;13.66;100.00;96787.47;4964395;28;20038;-62
2021/05/31 00:59:12;;;;;;;5.47;4.20;;;;;;;13.72;100.00;96792.66;4965149;28;20089;-64
2021/05/31 01:01:38;;;;;;;10.05;5.22;;;;;;;13.67;100.00;96794.63;4964644;28;20031;-62
2021/05/31 01:04:05;;;;;;;5.13;4.63;;;;;;;13.61;100.00;96785.09;4965090;28;20441;-62
2021/05/31 01:06:36;;;;;;;4.75;4.10;;;;;;;13.59;100.00;96781.88;4950795;28;20039;-61
2021/05/31 01:09:17;;;;;;;3.90;3.20;;;;;;;13.57;100.00;96778.72;4949180;29;20027;-64
2021/05/31 01:11:54;;;;;;;3.47;3.17;;;;;;;13.49;100.00;96765.19;4947248;29;20039;-61
2021/05/31 01:14:29;;;;;;;6.60;3.78;;;;;;;13.45;100.00;96765.19;4949194;29;20038;-62
2021/05/31 01:17:06;;;;;;;3.70;3.17;;;;;;;13.55;100.00;96781.09;4948855;29;20051;-61
2021/05/31 01:19:34;;;;;;;4.90;3.20;;;;;;;13.56;100.00;96766.00;4949188;29;20046;-61
2021/05/31 01:22:04;;;;;;;3.20;2.90;;;;;;;13.46;100.00;96761.22;4948644;29;20604;-60
2021/05/31 01:24:51;;;;;;;3.20;2.90;;;;;;;13.40;100.00;96762.78;4948958;29;20067;-63
2021/05/31 01:27:20;;;;;;;3.33;2.90;;;;;;;13.37;100.00;96774.69;4948754;28;20138;-65
2021/05/31 01:30:08;;;;;;;4.25;3.10;;;;;;;13.24;100.00;96772.69;4949173;29;20063;-61
2021/05/31 01:32:37;;;;;;;21.05;4.22;;;;;;;12.74;100.00;96734.81;4948812;28;20055;-61
2021/05/31 01:35:08;;;;;;;19.02;5.18;;;;;;;12.50;100.00;96763.28;4949262;29;20035;-62
2021/05/31 01:37:35;;;;;;;7.55;4.03;;;;;;;12.23;100.00;96704.41;4947189;28;20971;-62
2021/05/31 01:40:05;;;;;;;6.40;3.47;;;;;;;12.30;100.00;96687.78;4948916;29;20203;-63
2021/05/31 01:42:31;;;;;;;4.90;3.80;;;;;;;13.01;100.00;96786.94;4946675;29;20075;-62
2021/05/31 01:44:58;;;;;;;4.65;3.65;;;;;;;12.49;100.00;96709.69;4948753;29;20039;-62
2021/05/31 01:47:24;;;;;;;5.30;3.80;;;;;;;12.99;100.00;96766.25;4948368;29;20140;-63
2021/05/31 01:49:50;;;;;;;4.10;3.53;;;;;;;13.07;100.00;96777.00;4947001;29;20504;-61
2021/05/31 01:52:17;;;;;;;4.13;3.30;;;;;;;12.90;100.00;96738.03;4948263;28;20031;-62
2021/05/31 01:54:43;;;;;;;4.60;3.40;;;;;;;13.11;100.00;96761.16;4946968;29;20067;-62
2021/05/31 01:57:10;;;;;;;3.42;3.10;;;;;;;13.13;100.00;96764.34;4946426;28;20039;-62
2021/05/31 01:59:36;;;;;;;4.43;2.70;;;;;;;13.03;100.00;96742.84;4946795;28;20046;-64
2021/05/31 02:02:03;;;;;;;2.53;2.05;;;;;;;12.51;100.00;96685.09;4947666;29;20057;-63
2021/05/31 02:04:28;;;;;;;7.57;2.65;;;;;;;13.00;100.00;96732.53;4948504;28;20038;-64
2021/05/31 02:06:54;;;;;;;1.70;1.60;;;;;;;13.16;100.00;96757.19;4967176;28;20429;-60
2021/05/31 02:09:21;;;;;;;1.95;1.85;;;;;;;13.14;100.00;96760.38;4967783;28;20325;-60
2021/05/31 02:12:06;;;;;;;1.67;1.40;;;;;;;12.57;100.00;96675.19;4966989;28;20187;-61
2021/05/31 02:14:53;;;;;;;1.35;1.23;;;;;;;13.16;100.00;96763.56;4967407;28;20121;-64
2021/05/31 02:17:19;;;;;;;1.50;1.40;;;;;;;13.11;100.00;96766.72;4964278;28;20065;-63
2021/05/31 02:19:45;;;;;;;1.95;1.63;;;;;;;13.16;100.00;96766.34;4965778;28;20035;-61
2021/05/31 02:22:13;;;;;;;1.90;1.30;;;;;;;13.04;100.00;96761.13;4966889;28;20522;-61
2021/05/31 02:24:40;;;;;;;4.22;1.80;;;;;;;13.12;100.00;96762.72;4967487;28;20478;-61
2021/05/31 02:27:06;;;;;;;1.60;1.40;;;;;;;12.79;100.00;96732.44;4967329;28;20178;-64
2021/05/31 02:29:32;;;;;;;1.65;1.55;;;;;;;13.12;100.00;96768.28;4967375;28;20027;-61
2021/05/31 02:31:58;;;;;;;1.92;1.65;;;;;;;13.15;100.00;96773.06;4966969;28;20042;-62
2021/05/31 02:34:27;;;;;;;2.40;1.80;;;;;;;13.16;100.00;96768.31;4965700;28;20030;-62
2021/05/31 02:36:54;;;;;;;2.47;1.90;;;;;;;13.23;100.00;96769.13;4967152;28;20623;-61
2021/05/31 02:39:20;;;;;;;3.45;2.08;;;;;;;13.03;100.00;96736.50;4965824;28;20074;-60
2021/05/31 02:41:46;;;;;;;2.10;1.90;;;;;;;13.17;100.00;96775.44;4965463;28;20522;-62
2021/05/31 02:44:12;;;;;;;2.08;1.83;;;;;;;12.93;100.00;96732.47;4965525;28;20035;-65
2021/05/31 02:46:37;;;;;;;2.15;1.80;;;;;;;13.20;100.00;96772.69;4965248;28;20070;-61
2021/05/31 02:49:03;;;;;;;2.15;1.83;;;;;;;12.87;100.00;96728.47;4966762;28;20030;-63
2021/05/31 02:51:29;;;;;;;1.83;1.73;;;;;;;13.17;100.00;96773.47;4966127;28;20448;-63
2021/05/31 02:53:54;;;;;;;2.53;1.80;;;;;;;13.20;100.00;96775.47;4965403;28;20038;-61
2021/05/31 02:56:20;;;;;;;3.13;1.90;;;;;;;13.29;100.00;96772.31;4966336;28;20064;-60
2021/05/31 02:58:45;;;;;;;3.10;2.03;;;;;;;13.24;100.00;96775.47;4966770;28;20030;-62
2021/05/31 03:01:11;;;;;;;1.85;1.63;;;;;;;13.25;100.00;96783.44;4966121;28;20042;-61
2021/05/31 03:03:36;;;;;;;5.07;1.75;;;;;;;13.25;100.00;96775.09;4966472;28;20035;-61
2021/05/31 03:06:02;;;;;;;2.30;1.80;;;;;;;13.25;100.00;96772.31;4964340;28;20069;-62
2021/05/31 03:08:27;;;;;;;5.03;2.05;;;;;;;13.28;100.00;96774.31;4964613;28;20133;-61
2021/05/31 03:10:54;;;;;;;2.67;1.63;;;;;;;13.24;100.00;96770.72;4965841;28;20031;-61
2021/05/31 03:13:20;;;;;;;1.95;1.83;;;;;;;13.15;100.00;96773.06;4966152;28;20502;-61
2021/05/31 03:15:47;;;;;;;2.40;2.03;;;;;;;13.04;100.00;96766.69;4965628;28;20051;-61
2021/05/31 03:18:12;;;;;;;3.17;2.00;;;;;;;12.44;100.00;96675.94;4966646;28;20027;-60
2021/05/31 03:20:38;;;;;;;2.42;2.22;;;;;;;12.83;100.00;96721.31;4965593;28;20478;-63
2021/05/31 03:23:03;;;;;;;6.18;2.40;;;;;;;13.00;100.00;96743.66;4965931;28;20038;-62
2021/05/31 03:25:29;;;;;;;3.50;2.03;;;;;;;13.08;100.00;96773.06;4980529;28;20039;-62
2021/05/31 03:27:58;;;;;;;4.25;2.45;;;;;;;13.02;100.00;96768.28;4965502;28;20042;-64
2021/05/31 03:30:24;;;;;;;6.95;2.47;;;;;;;13.01;100.00;96772.25;4963791;28;20504;-63
2021/05/31 03:32:50;;;;;;;3.40;2.40;;;;;;;13.02;100.00;96757.16;4965852;28;20109;-61
2021/05/31 03:35:17;;;;;;;4.20;2.83;;;;;;;13.00;100.00;96765.88;4966223;28;20106;-62
2021/05/31 03:37:43;;;;;;;4.03;2.35;;;;;;;12.16;100.00;96634.97;4964106;28;20113;-62
2021/05/31 03:40:10;;;;;;;3.85;2.15;;;;;;;13.00;100.00;96765.88;4965872;28;20085;-61
2021/05/31 03:42:36;;;;;;;7.47;3.28;;;;;;;12.83;100.00;96727.69;4965449;28;20137;-61
2021/05/31 03:45:02;;;;;;;6.88;2.85;;;;;;;12.97;100.00;96766.66;4965859;28;20066;-63
2021/05/31 03:47:28;;;;;;;6.43;3.08;;;;;;;12.88;100.00;96766.19;4965360;28;20041;-61
2021/05/31 03:49:53;;;;;;;5.72;3.25;;;;;;;11.02;100.00;96456.44;4965754;28;20049;-63
2021/05/31 03:52:19;;;;;;;3.83;3.22;;;;;;;12.68;100.00;96737.16;4965369;28;20034;-62
2021/05/31 03:54:44;;;;;;;2.95;2.75;;;;;;;12.75;100.00;96726.06;4965604;28;20031;-61
2021/05/31 03:57:09;;;;;;;5.97;2.80;;;;;;;12.67;100.00;96705.00;4962878;28;20371;-65
2021/05/31 03:59:35;;;;;;;3.80;2.88;;;;;;;13.05;100.00;96759.94;4965472;28;20509;-62
2021/05/31 04:02:01;;;;;;;4.03;2.65;;;;;;;12.93;100.00;96757.47;4964917;28;20035;-61
2021/05/31 04:04:36;;;;;;;4.63;2.97;;;;;;;12.47;100.00;96673.16;4965334;28;20134;-61
2021/05/31 04:11:34;;;;;;;3.75;2.50;;;;;;;13.11;100.00;96765.91;4945428;28;20187;-61
2021/05/31 04:12:40;;;;;;;3.70;3.05;;;;;;;13.19;100.00;96779.44;4946297;29;20438;-62
2021/05/31 04:15:06;;;;;;;4.15;2.85;;;;;;;12.82;100.00;96726.06;4946008;29;20548;-61
2021/05/31 04:17:31;;;;;;;4.93;2.80;;;;;;;12.65;100.00;96681.56;4946069;28;20035;-60
2021/05/31 04:19:57;;;;;;;3.97;2.85;;;;;;;13.24;100.00;96776.28;4946437;29;20490;-64
2021/05/31 04:22:22;;;;;;;3.35;3.05;;;;;;;13.21;100.00;96777.09;4945684;29;20038;-62
2021/05/31 04:24:48;;;;;;;3.58;3.17;;;;;;;13.33;100.00;96778.69;4946144;29;20037;-62
2021/05/31 04:27:13;;;;;;;5.70;3.53;;;;;;;13.24;100.00;96776.28;4945765;29;20058;-64
2021/05/31 04:29:39;;;;;;;4.18;2.92;;;;;;;13.24;100.00;96764.34;4946211;28;20046;-63
2021/05/31 04:32:04;;;;;;;4.20;3.33;;;;;;;13.06;100.00;96742.06;4959881;28;20031;-62
2021/05/31 04:34:30;;;;;;;4.53;3.42;;;;;;;13.12;100.00;96734.91;4946030;28;20044;-63
2021/05/31 04:36:55;;;;;;;4.30;3.72;;;;;;;13.39;100.00;96772.34;4945379;29;20112;-62
2021/05/31 04:39:21;;;;;;;3.45;3.15;;;;;;;12.70;100.00;96659.75;4945401;29;20094;-62
2021/05/31 04:41:46;;;;;;;3.05;2.75;;;;;;;13.32;100.00;96777.09;4959885;28;20417;-63
2021/05/31 04:44:12;;;;;;;5.10;3.13;;;;;;;13.30;100.00;96780.28;4960444;28;20426;-63
2021/05/31 04:46:37;;;;;;;4.97;3.38;;;;;;;13.24;100.00;96754.03;4945163;28;20134;-62
2021/05/31 04:49:04;;;;;;;3.85;3.00;;;;;;;12.78;100.00;96691.94;4959649;28;20039;-63
2021/05/31 04:51:29;;;;;;;5.57;2.90;;;;;;;13.39;100.00;96780.69;4944617;28;20574;-61
2021/05/31 04:53:57;;;;;;;5.28;3.45;;;;;;;13.43;100.00;96778.72;4945446;29;20085;-62
2021/05/31 04:56:23;;;;;;;3.28;2.78;;;;;;;13.12;100.00;96745.28;4959244;28;20039;-62
2021/05/31 04:58:49;;;;;;;5.00;3.10;;;;;;;13.46;100.00;96789.06;4945548;28;20038;-62
2021/05/31 05:01:15;;;;;;;3.75;2.97;;;;;;;13.36;100.00;96762.00;4945257;29;20054;-62
2021/05/31 05:03:40;;;;;;;3.17;2.78;;;;;;;13.56;100.00;96777.13;4945562;29;20490;-65
2021/05/31 05:06:06;;;;;;;5.53;3.90;;;;;;;13.58;100.00;96780.31;4956706;28;20655;-63
2021/05/31 05:08:31;;;;;;;4.70;3.20;;;;;;;13.46;100.00;96777.91;4964182;28;20026;-62
2021/05/31 05:10:57;;;;;;;3.65;3.35;;;;;;;13.52;100.00;96775.53;4963994;28;20066;-62
2021/05/31 05:13:22;;;;;;;4.88;4.38;;;;;;;13.30;100.00;96762.78;4964370;28;20035;-62
2021/05/31 05:15:49;;;;;;;4.47;4.07;;;;;;;13.40;100.00;96756.44;4962253;28;20506;-62
2021/05/31 05:18:14;;;;;;;4.13;3.67;;;;;;;13.54;100.00;96785.09;4979217;28;20070;-64
2021/05/31 05:20:40;;;;;;;7.22;5.80;;;;;;;13.39;100.00;96761.19;4962334;28;20537;-62
2021/05/31 05:23:06;;;;;;;6.90;5.28;;;;;;;13.37;100.00;96752.44;4962552;28;20077;-62
2021/05/31 05:25:31;;;;;;;6.68;5.45;;;;;;;11.48;100.00;96462.97;4963854;28;20070;-62
2021/05/31 05:27:56;;;;;;;5.40;4.10;;;;;;;13.58;100.00;96785.06;4963795;28;20574;-63
2021/05/31 05:30:24;;;;;;;4.35;3.42;;;;;;;13.24;100.00;96742.09;4963913;28;20039;-65
2021/05/31 05:32:51;;;;;;;4.43;3.75;;;;;;;13.57;100.00;96781.50;4964466;28;20039;-62
2021/05/31 05:35:43;;;;;;;4.13;3.63;;;;;;;13.65;100.00;96790.66;4964392;28;20039;-64
2021/05/31 05:38:28;;;;;;;5.90;4.47;;;;;;;13.70;100.00;96782.69;4962453;28;20043;-61
2021/05/31 05:48:40;;;;;;;3.78;3.38;;;;;;;13.68;100.00;96779.53;4963895;28;20042;-60
2021/05/31 05:51:07;;;;;;;6.90;4.38;;;;;;;11.39;100.00;96409.88;4962605;28;20116;-61
2021/05/31 05:53:42;;;;;;;4.30;3.92;;;;;;;13.81;100.00;96787.47;4966014;28;20105;-61
2021/05/31 05:56:11;;;;;;;5.07;4.40;;;;;;;13.79;100.00;96790.66;4966049;28;20050;-61
2021/05/31 05:58:37;;;;;;;4.70;4.15;;;;;;;10.84;100.00;96322.56;4963848;28;20037;-69
2021/05/31 06:01:04;;;;;;;5.68;4.15;;;;;;;13.85;100.00;96799.44;4965075;28;20037;-61
2021/05/31 06:03:30;;;;;;;4.18;3.72;;;;;;;13.51;100.00;96741.31;4967110;28;20066;-57
2021/05/31 06:05:56;;;;;;;4.97;3.75;;;;;;;13.96;100.00;96794.66;4966354;28;20070;-60
2021/05/31 06:08:22;;;;;;;4.82;3.35;;;;;;;13.50;100.00;96731.41;4964078;28;20493;-62
2021/05/31 06:10:48;;;;;;;4.88;3.90;;;;;;;13.95;100.00;96793.03;4963487;28;20039;-64
2021/05/31 06:13:14;;;;;;;5.75;4.30;;;;;;;12.96;100.00;96631.59;4967012;28;20129;-64
2021/05/31 06:15:40;;;;;;;6.90;4.80;;;;;;;13.24;100.00;96664.22;4966062;28;20062;-64
2021/05/31 06:18:06;;;;;;;8.35;3.65;;;;;;;13.69;100.00;96747.72;4965051;28;20035;-74
2021/05/31 06:20:31;;;;;;;4.60;3.50;;;;;;;13.98;100.00;96793.06;4966488;28;20078;-63
2021/05/31 06:22:57;;;;;;;7.15;4.32;;;;;;;13.93;100.00;96789.84;4965501;28;20140;-67
2021/05/31 06:25:22;;;;;;;5.80;5.35;;;;;;;13.54;100.00;96711.94;4965948;28;20035;-66
2021/05/31 06:27:48;;;;;;;6.72;6.13;;;;;;;13.74;100.00;96742.94;4964720;28;20042;-62
2021/05/31 06:30:15;;;;;;;8.25;7.45;;;;;;;13.87;100.00;96772.78;4964594;28;20114;-69
2021/05/31 06:32:40;;;;;;;8.68;5.93;;;;;;;14.05;100.00;96781.91;4963923;28;20039;-64
2021/05/31 06:35:07;;;;;;;4.50;4.10;;;;;;;13.37;100.00;96674.56;4965103;28;20510;-62
2021/05/31 06:37:38;;;;;;;4.30;3.90;;;;;;;14.23;100.00;96790.22;4966174;28;20038;-60
2021/05/31 06:40:10;;;;;;;4.10;3.70;;;;;;;13.88;96.96;96734.59;4965462;28;20721;-58
2021/05/31 06:42:37;;;;;;;3.97;3.65;;;;;;;14.09;98.88;96793.84;4965439;28;20050;-59
2021/05/31 06:45:07;;;;;;;3.83;3.53;;;;;;;13.83;98.71;96751.69;4967127;28;20039;-62
2021/05/31 06:47:33;;;;;;;4.00;3.70;;;;;;;14.17;95.23;96786.25;4964991;28;20043;-70
2021/05/31 06:49:59;;;;;;;4.65;3.83;;;;;;;14.25;95.46;96793.44;4966371;28;20577;-71
2021/05/31 06:52:24;;;;;;;4.70;4.30;;;;;;;14.08;95.17;96795.03;4963109;28;20137;-64
2021/05/31 06:54:50;;;;;;;5.35;4.70;;;;;;;14.17;95.61;96789.06;4966679;28;20127;-64
2021/05/31 06:57:15;;;;;;;3.75;3.40;;;;;;;13.67;95.08;96738.97;4966198;28;20034;-61
2021/05/31 06:59:40;;;;;;;3.75;3.15;;;;;;;14.04;95.23;96797.03;4965671;28;20081;-63
2021/05/31 07:02:06;;;;;;;3.53;3.22;;;;;;;13.70;94.56;96777.13;4965206;28;20037;-68
2021/05/31 07:04:32;;;;;;;3.28;2.97;;;;;;;14.20;91.81;96799.38;4966160;28;20117;-64
2021/05/31 07:06:57;;;;;;;4.43;3.30;;;;;;;14.16;92.52;96765.19;4966302;28;20043;-68
2021/05/31 07:09:23;;;;;;;4.28;3.00;;;;;;;14.60;93.50;96796.19;4965287;28;20528;-65
2021/05/31 07:11:48;;;;;;;4.00;3.67;;;;;;;14.52;91.95;96783.44;4965139;28;20061;-66
2021/05/31 07:14:19;;;;;;;4.32;3.42;;;;;;;14.68;91.38;96797.75;4963268;28;20489;-69
2021/05/31 07:16:46;;;;;;;3.50;3.20;;;;;;;14.67;88.41;96824.81;4963212;28;20051;-62
2021/05/31 07:19:12;;;;;;;4.03;3.58;;;;;;;14.37;88.23;96754.03;4958985;28;20039;-63
2021/05/31 07:21:39;;;;;;;3.53;3.22;;;;;;;14.64;89.38;96805.31;4955396;28;20046;-65
2021/05/31 07:24:08;;;;;;;4.10;3.70;;;;;;;14.46;88.38;96787.84;4958648;28;20041;-62
2021/05/31 07:26:33;;;;;;;5.00;3.90;;;;;;;14.53;92.26;96780.25;4959851;28;20043;-65
2021/05/31 07:28:59;;;;;;;4.75;4.28;;;;;;;14.62;90.82;96754.75;4963581;28;20093;-61
2021/05/31 07:31:24;;;;;;;4.15;3.70;;;;;;;14.99;92.12;96786.47;4964711;28;20035;-64
2021/05/31 07:33:49;;;;;;;3.95;3.65;;;;;;;15.15;87.72;96783.22;4964967;28;20058;-64
2021/05/31 07:36:16;;;;;;;4.03;3.72;;;;;;;14.73;88.31;96705.31;4980035;28;20043;-64
2021/05/31 07:38:41;;;;;;;4.10;3.70;;;;;;;15.21;85.32;96748.09;4979694;28;20059;-67
2021/05/31 07:41:07;;;;;;;5.32;4.32;;;;;;;15.27;83.35;96752.03;4965241;28;20489;-67
2021/05/31 07:43:32;;;;;;;5.78;3.90;;;;;;;15.54;82.82;96792.19;4965413;28;20049;-62
2021/05/31 07:45:58;;;;;;;5.45;4.43;;;;;;;15.41;82.19;96773.53;4964947;28;20039;-67
2021/05/31 07:48:23;;;;;;;3.05;2.85;;;;;;;15.61;79.90;96780.97;4964926;28;20496;-61
2021/05/31 07:50:50;;;;;;;3.88;3.50;;;;;;;15.78;81.50;96796.81;4962433;28;20130;-63
2021/05/31 07:53:20;;;;;;;8.05;3.45;;;;;;;16.07;82.15;96753.47;4962929;28;20097;-65
2021/05/31 07:55:46;;;;;;;4.57;3.97;;;;;;;16.55;83.45;96776.56;4964207;28;20039;-69
2021/05/31 07:58:12;;;;;;;3.83;3.53;;;;;;;16.43;78.98;96723.97;4964615;28;20088;-66
2021/05/31 08:00:37;;;;;;;3.85;3.55;;;;;;;15.93;77.91;96627.88;4963052;28;20053;-68
2021/05/31 08:03:03;;;;;;;4.10;3.60;;;;;;;16.74;80.39;96768.78;4963725;28;20034;-69
2021/05/31 08:05:29;;;;;;;4.22;3.83;;;;;;;16.03;81.12;96643.72;4964110;28;20445;-67
2021/05/31 08:07:55;;;;;;;5.57;4.75;;;;;;;16.95;81.30;96766.53;4961925;28;20593;-59
2021/05/31 08:10:22;;;;;;;4.00;3.70;;;;;;;17.09;80.06;96782.34;4963608;28;20098;-63
2021/05/31 08:12:48;;;;;;;3.97;3.67;;;;;;;15.35;78.45;96496.81;4965129;28;20045;-62
2021/05/31 08:15:14;;;;;;;3.53;3.22;;;;;;;16.35;79.84;96672.13;4962719;28;20050;-63
2021/05/31 08:17:41;;;;;;;3.70;3.40;;;;;;;17.05;78.73;96782.41;4962286;28;20440;-62
2021/05/31 08:20:08;;;;;;;4.28;3.75;;;;;;;17.22;77.83;96769.38;4964323;28;20627;-62
2021/05/31 08:22:33;;;;;;;3.85;3.10;;;;;;;16.77;76.62;96723.97;4962741;28;20172;-61
2021/05/31 08:25:01;;;;;;;3.30;3.10;;;;;;;17.16;76.94;96785.06;4962723;28;20173;-71
2021/05/31 08:27:26;;;;;;;2.95;2.75;;;;;;;16.78;73.39;96721.97;4963083;28;20532;-70
2021/05/31 08:29:51;;;;;;;3.42;3.15;;;;;;;16.95;75.77;96772.13;4964663;28;20062;-63
2021/05/31 08:32:18;;;;;;;3.75;3.45;;;;;;;16.99;77.36;96772.88;4964539;28;20026;-64
2021/05/31 08:34:44;;;;;;;18.00;11.07;;;;;;;15.99;79.02;96592.69;4961830;28;20108;-63
2021/05/31 08:37:09;;;;;;;3.40;3.10;;;;;;;16.72;73.78;96706.88;4959692;28;20702;-63
2021/05/31 08:39:35;;;;;;;6.63;5.28;;;;;;;17.05;75.64;96731.22;4960131;28;20093;-68
2021/05/31 08:42:00;;;;;;;4.03;3.60;;;;;;;16.63;74.50;96642.28;4964222;28;20069;-66
2021/05/31 08:44:29;;;;;;;4.70;4.30;;;;;;;17.13;73.32;96735.50;4965258;28;20026;-66
2021/05/31 08:46:55;;;;;;;6.63;3.10;;;;;;;17.42;73.40;96773.13;4963630;28;20042;-66
2021/05/31 08:49:24;;;;;;;2.53;2.38;;;;;;;17.33;74.67;96770.03;4964689;28;20516;-65
2021/05/31 08:51:49;;;;;;;2.60;2.40;;;;;;;17.39;72.43;96757.13;4963322;28;20042;-67
2021/05/31 08:54:15;;;;;;;2.90;2.70;;;;;;;17.54;72.59;96769.75;4961683;28;20046;-66
2021/05/31 08:56:42;;;;;;;3.25;2.70;;;;;;;17.71;73.26;96763.91;4963873;28;20042;-63
2021/05/31 08:59:08;;;;;;;3.85;2.78;;;;;;;17.78;72.22;96780.59;4963363;28;20530;-63
2021/05/31 09:01:33;;;;;;;4.55;3.03;;;;;;;17.72;75.54;96770.31;4965022;28;20039;-63
2021/05/31 09:03:59;;;;;;;3.17;2.97;;;;;;;17.83;75.27;96762.53;4964554;28;20573;-63
2021/05/31 09:06:27;;;;;;;3.15;2.95;;;;;;;17.85;75.52;96762.88;4964442;28;20078;-63
2021/05/31 09:09:00;;;;;;;3.25;2.65;;;;;;;17.39;75.95;96717.94;4964485;28;20089;-64
2021/05/31 09:11:28;;;;;;;2.42;2.33;;;;;;;17.77;74.10;96778.22;4962990;28;20050;-62
2021/05/31 09:13:54;;;;;;;2.70;2.50;;;;;;;17.57;75.28;96769.72;4964500;28;20431;-64
2021/05/31 09:16:25;;;;;;;3.25;2.10;;;;;;;17.58;73.69;96759.28;4962244;28;20047;-63
2021/05/31 09:18:58;;;;;;;3.40;3.17;;;;;;;17.67;73.26;96765.16;4964620;28;20043;-64
2021/05/31 09:21:29;;;;;;;2.60;2.40;;;;;;;17.71;72.10;96766.69;4964687;28;20118;-64
2021/05/31 09:23:59;;;;;;;2.90;2.40;;;;;;;17.77;72.45;96767.81;4964347;28;20047;-64
2021/05/31 09:26:26;;;;;;;2.75;2.10;;;;;;;17.83;72.46;96768.13;4965839;28;20070;-62
2021/05/31 09:29:00;;;;;;;2.15;2.05;;;;;;;17.93;70.33;96769.94;4967908;28;20070;-62
2021/05/31 09:31:27;;;;;;;3.53;2.10;;;;;;;17.82;71.10;96766.53;4967680;28;20035;-61
2021/05/31 09:33:58;;;;;;;2.70;2.60;;;;;;;18.02;73.36;96771.00;4967987;28;20030;-62
2021/05/31 09:36:25;;;;;;;2.85;2.65;;;;;;;18.28;69.81;96768.56;4967392;28;20050;-61
2021/05/31 09:38:50;;;;;;;3.10;2.80;;;;;;;15.75;71.48;96398.28;4968617;28;20140;-63
2021/05/31 09:41:33;;;;;;;3.88;2.60;;;;;;;18.30;71.72;96766.94;4967789;28;20714;-63
2021/05/31 09:44:01;;;;;;;2.42;2.33;;;;;;;17.87;68.04;96653.97;4968095;28;20045;-66
2021/05/31 09:46:45;;;;;;;5.03;2.53;;;;;;;18.87;66.10;96745.03;4967474;28;20041;-61
2021/05/31 09:49:15;;;;;;;2.80;2.60;;;;;;;19.08;66.46;96750.19;4968163;28;20069;-61
2021/05/31 09:51:52;;;;;;;5.55;3.05;;;;;;;19.30;66.08;96731.69;4964798;28;20054;-65
2021/05/31 09:54:38;;;;;;;5.40;2.90;;;;;;;19.49;66.59;96733.66;4949414;28;20053;-62
2021/05/31 09:57:19;;;;;;;2.72;2.55;;;;;;;20.05;65.37;96722.28;4948460;29;20032;-62
2021/05/31 10:00:17;;;;;;;2.47;2.35;;;;;;;19.84;60.74;96734.06;4948692;29;20038;-63
2021/05/31 10:07:58;;;;;;;2.63;2.53;;;;;;;18.96;59.36;96624.53;4948180;29;20046;-63
2021/05/31 10:10:24;;;;;;;3.00;2.80;;;;;;;19.60;60.01;96707.34;4947667;29;20528;-63
2021/05/31 10:12:50;;;;;;;2.38;2.28;;;;;;;19.93;62.25;96742.69;4948573;28;20027;-67
2021/05/31 10:15:18;;;;;;;3.10;2.63;;;;;;;19.87;59.56;96741.63;4945851;29;20059;-62
2021/05/31 10:17:46;;;;;;;2.60;2.40;;;;;;;19.65;63.09;96737.75;4947944;28;20035;-65
2021/05/31 10:20:12;;;;;;;2.65;2.55;;;;;;;19.58;64.60;96737.91;4954780;28;20030;-64
2021/05/31 10:22:38;;;;;;;2.70;2.50;;;;;;;19.49;62.12;96742.09;4967055;28;20547;-63
2021/05/31 10:25:07;;;;;;;2.55;2.35;;;;;;;18.58;62.44;96606.53;4965539;28;20126;-66
2021/05/31 10:27:34;;;;;;;2.38;2.28;;;;;;;18.63;64.17;96662.13;4967733;28;20051;-66
2021/05/31 10:30:02;;;;;;;2.20;2.10;;;;;;;18.94;64.33;96733.66;4967207;28;20115;-63
2021/05/31 10:32:27;;;;;;;2.80;2.13;;;;;;;18.75;65.57;96726.00;4966629;28;20153;-63
2021/05/31 10:34:54;;;;;;;3.80;2.38;;;;;;;18.22;69.72;96726.22;4967265;28;20117;-63
2021/05/31 10:37:30;;;;;;;2.78;2.60;;;;;;;15.83;67.17;96310.41;4964295;28;20469;-70
2021/05/31 10:40:03;;;;;;;2.67;2.47;;;;;;;18.44;67.74;96707.00;4965155;28;20438;-64
2021/05/31 10:43:05;;;;;;;2.45;2.28;;;;;;;18.84;67.00;96689.75;4967039;28;20046;-64
2021/05/31 10:45:31;;;;;;;3.20;3.00;;;;;;;18.68;65.53;96658.84;4963768;28;20043;-60
2021/05/31 10:48:09;;;;;;;3.53;2.28;;;;;;;18.60;65.70;96674.22;4966557;28;20035;-68
2021/05/31 10:50:41;;;;;;;2.40;2.30;;;;;;;18.87;68.29;96722.56;4966049;28;20043;-67
2021/05/31 10:53:30;;;;;;;3.17;2.97;;;;;;;18.83;68.17;96716.22;4973011;28;20029;-63
2021/05/31 10:56:08;;;;;;;3.35;3.05;;;;;;;18.77;66.50;96712.34;4965341;28;20031;-75
2021/05/31 10:58:36;;;;;;;3.03;2.83;;;;;;;18.67;67.61;96713.34;4963533;28;20461;-59
2021/05/31 11:01:08;;;;;;;4.35;3.95;;;;;;;18.74;67.51;96702.00;4964263;28;20356;-70
2021/05/31 11:03:53;;;;;;;4.10;3.70;;;;;;;18.69;68.24;96704.50;4965247;28;20484;-62
2021/05/31 11:06:24;;;;;;;7.25;5.45;;;;;;;17.91;68.21;96598.63;4961341;28;20043;-66
2021/05/31 11:08:50;;;;;;;3.70;3.40;;;;;;;16.44;67.66;96384.47;4962818;28;20053;-61
2021/05/31 11:11:28;;;;;;;4.05;3.65;;;;;;;18.50;66.46;96702.47;4963033;28;20433;-66
2021/05/31 11:13:55;;;;;;;5.25;2.90;;;;;;;18.64;68.77;96707.81;4965756;28;20410;-65
2021/05/31 11:16:21;;;;;;;3.00;2.80;;;;;;;19.03;67.39;96690.97;4964565;28;20054;-65
2021/05/31 11:18:49;;;;;;;3.75;3.10;;;;;;;19.48;67.80;96692.75;4963505;28;20041;-65
2021/05/31 11:21:50;;;;;;;3.13;2.92;;;;;;;17.81;63.53;96381.09;4964154;28;20058;-64
2021/05/31 11:24:18;;;;;;;3.20;3.00;;;;;;;20.22;61.60;96698.56;4985212;28;20042;-66
2021/05/31 11:26:44;;;;;;;2.90;2.72;;;;;;;19.91;60.77;96655.16;4965219;28;20050;-63
2021/05/31 11:29:11;;;;;;;4.30;3.35;;;;;;;20.48;61.59;96672.16;4968028;28;20141;-62
2021/05/31 11:31:39;;;;;;;3.47;2.80;;;;;;;20.54;61.85;96684.44;4963460;28;20119;-63
2021/05/31 11:34:06;;;;;;;2.70;2.55;;;;;;;20.24;59.96;96594.84;4964784;28;20030;-65
2021/05/31 11:36:42;;;;;;;3.50;3.30;;;;;;;21.05;59.22;96677.75;4964635;28;20179;-63
2021/05/31 11:39:14;;;;;;;3.65;3.35;;;;;;;20.76;60.77;96688.22;4963209;28;20498;-62
2021/05/31 11:41:49;;;;;;;3.30;2.97;;;;;;;20.72;59.99;96684.75;4973830;28;20282;-62
2021/05/31 11:44:29;;;;;;;3.40;3.20;;;;;;;20.36;60.34;96684.16;4964855;28;20034;-68
2021/05/31 11:46:59;;;;;;;4.90;4.10;;;;;;;20.28;61.58;96677.13;4973723;28;20562;-68
2021/05/31 11:49:26;;;;;;;6.00;4.68;;;;;;;19.34;61.76;96588.38;4962233;28;20679;-62